WetterOnline ( https://www.wetteronline.de )

Wetter aktuell San Biagio

Aktuelles Wetter: Frontone (574m)

6-stündlich | Neueste Meldungen
Ortszeit Temperatur Wetter
Mo, 27.01. 13:00 7.8° C leicht bewölkt
Mo, 27.01. 7:00 4.6° C leicht bewölkt
Mo, 27.01. 1:00 3.8° C Nebel
So, 26.01. 19:00 4.2° C Nebel
So, 26.01. 13:00 4.8° C Nebel (zunehmend)
So, 26.01. 7:00 4.2° C Nebel
So, 26.01. 1:00 4.0° C Nebel
Sa, 25.01. 19:00 4.8° C leichter Regen
Ortszeit Temperatur Wetter
Mo, 27.01. 17:00 8.2° C wolkig
Mo, 27.01. 16:55 8° C bewölkt
Mo, 27.01. 16:00 9.0° C leicht bewölkt
Mo, 27.01. 15:55 9° C leicht bewölkt
Mo, 27.01. 15:00 8.6° C leicht bewölkt
Mo, 27.01. 14:55 9° C leicht bewölkt
Mo, 27.01. 14:00 8.0° C leicht bewölkt
Mo, 27.01. 13:55 8° C leicht bewölkt
Mo, 27.01. 13:00 7.8° C leicht bewölkt
Ortszeit Relative Feuchte Sichtweite
Mo, 27.01. 13:00 68% 40 km
Mo, 27.01. 7:00 84% 15 km
Mo, 27.01. 1:00 94% 0.2 km
So, 26.01. 19:00 98% 100 m
So, 26.01. 13:00 94% 0.2 km
So, 26.01. 7:00 96% 0.8 km
So, 26.01. 1:00 98% 100 m
Sa, 25.01. 19:00 98% 100 m
Ortszeit Relative Feuchte Sichtweite
Mo, 27.01. 17:00 72% 30 km
Mo, 27.01. 16:55 71% >10 km
Mo, 27.01. 16:00 68% 30 km
Mo, 27.01. 15:55 66% >10 km
Mo, 27.01. 15:00 68% 40 km
Mo, 27.01. 14:55 66% >10 km
Mo, 27.01. 14:00 70% 40 km
Mo, 27.01. 13:55 71% >10 km
Mo, 27.01. 13:00 68% 40 km
Ortszeit Niederschlagsmenge Niederschlagsart
Mo, 27.01. 13:00 0.0 l/m2 in 6 Std. -
Mo, 27.01. 7:00 0.0 l/m2 in 12 Std. -
Mo, 27.01. 1:00 0.0 l/m2 in 6 Std. Nebel
So, 26.01. 19:00 0.0 l/m2 in 12 Std. Nebel
So, 26.01. 13:00 0.0 l/m2 in 6 Std. Nebel
So, 26.01. 7:00 0.8 l/m2 in 12 Std. Nebel
So, 26.01. 1:00 0.8 l/m2 in 6 Std. Regen, Nebel
Sa, 25.01. 19:00 3 l/m2 in 12 Std. Regen
Ortszeit Niederschlagsmenge Niederschlagsart
Mo, 27.01. 17:00 keine Meldung -
Mo, 27.01. 16:55 keine Meldung -
Mo, 27.01. 16:00 keine Meldung -
Mo, 27.01. 15:55 keine Meldung -
Mo, 27.01. 15:00 keine Meldung -
Mo, 27.01. 14:55 keine Meldung -
Mo, 27.01. 14:00 keine Meldung -
Mo, 27.01. 13:55 keine Meldung -
Mo, 27.01. 13:00 keine Meldung -
Ortszeit Stärke Spitze Richtung
km/h Bft. km/h Grad Sektor
Mo, 27.01. 13:00 24 4 - 250° W
Mo, 27.01. 7:00 13 3 - 240° SW
Mo, 27.01. 1:00 9 2 - 260° W
So, 26.01. 19:00 7 2 - 270° W
So, 26.01. 13:00 4 1 - 320° NW
So, 26.01. 7:00 2 1 - 280° W
So, 26.01. 1:00 6 1 - 140° SO
Sa, 25.01. 19:00 4 1 - 60° NO
Ortszeit Stärke Spitze Richtung
km/h Bft. km/h Grad Sektor
Mo, 27.01. 17:00 22 4 - 290° W
Mo, 27.01. 16:55 22 4 - 290° W
Mo, 27.01. 16:00 19 3 - 250° W
Mo, 27.01. 15:55 19 3 - 250° W
Mo, 27.01. 15:00 22 4 - 220° SW
Mo, 27.01. 14:55 22 4 - 220° SW
Mo, 27.01. 14:00 20 4 - 220° SW
Mo, 27.01. 13:55 20 4 - 220° SW
Mo, 27.01. 13:00 24 4 - 250° W
Ortszeit Untergrenze Bedeckung Gattung
total tief tief mittel hoch
Mo, 27.01. 13:00 600 m 2/8 2/8 Cu - -
Mo, 27.01. 7:00 750 m 4/8 2/8 Cu Ac -
Mo, 27.01. 1:00 - 8/8 - - - -
So, 26.01. 19:00 - 8/8 - - - -
So, 26.01. 13:00 - 8/8 - - - -
So, 26.01. 7:00 - 8/8 - - - -
So, 26.01. 1:00 - 8/8 - - - -
Sa, 25.01. 19:00 - 8/8 - - - -
Ortszeit Bedeckungsgrad in Achtel und Wolkenuntergrenze
Mo, 27.01. 17:00 6(720m)
Mo, 27.01. 16:55 5-7(720m)
Mo, 27.01. 16:00 3(750m)
Mo, 27.01. 15:55 3-4(750m)
Mo, 27.01. 15:00 3(750m)
Mo, 27.01. 14:55 3-4(750m)
Mo, 27.01. 14:00 2(630m)
Mo, 27.01. 13:55 1-2(630m)
Mo, 27.01. 13:00 2(600m)
Ortszeit Stationsdruck (hPa) Tendenz (hPa in 3 Std.)
Mo, 27.01. 13:00 951 - 0,5
Mo, 27.01. 7:00 950 - 0,3
Mo, 27.01. 1:00 951 - 0,1
So, 26.01. 19:00 951 0,0
So, 26.01. 13:00 952 0,0
So, 26.01. 7:00 952 - 0,6
So, 26.01. 1:00 953 0,0
Sa, 25.01. 19:00 953 - 0,1
Ortszeit Stationsdruck (hPa) Tendenz (hPa in 3 Std.)
Mo, 27.01. 17:00 950 0,0
Mo, 27.01. 16:55 - keine Meldung
Mo, 27.01. 16:00 950 - 0,6
Mo, 27.01. 15:55 - keine Meldung
Mo, 27.01. 15:00 950 - 1,2
Mo, 27.01. 14:55 - keine Meldung
Mo, 27.01. 14:00 950 - 1,1
Mo, 27.01. 13:55 - keine Meldung
Mo, 27.01. 13:00 951 - 0,5
Ortszeit Schneehöhe (cm)
Mo, 27.01. 13:00 -
Mo, 27.01. 7:00 -
Mo, 27.01. 1:00 -
So, 26.01. 19:00 -
So, 26.01. 13:00 -
So, 26.01. 7:00 0
So, 26.01. 1:00 -
Sa, 25.01. 19:00 -
Ortszeit Schneehöhe (cm)
Mo, 27.01. 17:00 -
Mo, 27.01. 16:55 -
Mo, 27.01. 16:00 -
Mo, 27.01. 15:55 -
Mo, 27.01. 15:00 -
Mo, 27.01. 14:55 -
Mo, 27.01. 14:00 -
Mo, 27.01. 13:55 -
Mo, 27.01. 13:00 -
Link zu dieser Seite / Seite empfehlen

Das Wetter in ...